Time;durP1;ratioP1;P1;durP2;ratioP2;P2;SDS_P1;SDS_P2;PMS_P1;PMS_P2;Temp;Humidity;BMP_temperature;BMP_pressure;BME280_temperature;BME280_humidity;BME280_pressure;Samples;Min_cycle;Max_cycle;Signal;HPM_P1;HPM_P2
2021/05/03 00:01:16;;;;;;;4.70;3.08;;;;;;;3.96;63.27;100136.72;5070642;28;20442;-71
2021/05/03 00:03:41;;;;;;;4.80;3.00;;;;;;;3.90;63.61;100134.22;5070973;28;20594;-71
2021/05/03 00:06:07;;;;;;;6.97;2.63;;;;;;;3.86;63.41;100137.75;5070932;28;20094;-71
2021/05/03 00:08:32;;;;;;;6.07;3.00;;;;;;;3.83;63.38;100136.06;5070693;28;20058;-71
2021/05/03 00:10:58;;;;;;;5.78;2.88;;;;;;;3.81;63.27;100140.44;5070560;28;20725;-71
2021/05/03 00:13:25;;;;;;;4.35;3.17;;;;;;;3.79;63.21;100141.34;5070984;28;20043;-71
2021/05/03 00:15:51;;;;;;;6.18;2.90;;;;;;;3.78;63.46;100144.84;5067509;28;20136;-71
2021/05/03 00:18:16;;;;;;;5.82;2.60;;;;;;;3.71;63.62;100141.47;5051357;28;20477;-71
2021/05/03 00:20:41;;;;;;;7.65;2.42;;;;;;;3.63;63.61;100146.81;5038087;28;20037;-71
2021/05/03 00:23:07;;;;;;;5.07;3.13;;;;;;;3.60;63.87;100141.66;5062531;28;20037;-71
2021/05/03 00:25:32;;;;;;;5.18;2.45;;;;;;;3.56;64.10;100146.94;5035478;28;20037;-71
2021/05/03 00:27:57;;;;;;;6.95;3.30;;;;;;;3.54;64.03;100143.47;5052111;28;20111;-70
2021/05/03 00:30:23;;;;;;;4.72;3.00;;;;;;;3.47;63.97;100142.72;5068836;28;20399;-70
2021/05/03 00:32:48;;;;;;;5.20;2.85;;;;;;;3.43;64.33;100143.66;5070996;28;20460;-71
2021/05/03 00:35:15;;;;;;;3.60;2.50;;;;;;;3.34;64.79;100144.63;5071706;28;20098;-72
2021/05/03 00:37:41;;;;;;;5.20;3.20;;;;;;;3.28;64.70;100147.34;5071404;28;20043;-71
2021/05/03 00:40:07;;;;;;;9.60;5.90;;;;;;;3.26;65.16;100156.06;5071725;28;20123;-72
2021/05/03 00:42:33;;;;;;;7.60;3.75;;;;;;;3.21;65.14;100145.69;5070661;28;20502;-72
2021/05/03 00:45:08;;;;;;;5.25;2.90;;;;;;;3.21;64.70;100151.75;5070429;28;20048;-70
2021/05/03 00:47:34;;;;;;;5.53;3.08;;;;;;;3.21;64.64;100146.53;5070224;28;20036;-70
2021/05/03 00:50:00;;;;;;;7.95;3.63;;;;;;;3.19;64.83;100150.91;5070362;28;20496;-71
2021/05/03 00:52:26;;;;;;;12.00;3.53;;;;;;;3.17;64.98;100144.84;5070664;28;20069;-71
2021/05/03 00:54:51;;;;;;;8.93;4.28;;;;;;;3.15;65.14;100154.47;5069720;28;20063;-71
2021/05/03 00:57:16;;;;;;;7.05;4.40;;;;;;;3.10;65.17;100158.88;5069627;28;20037;-71
2021/05/03 00:59:42;;;;;;;4.82;3.45;;;;;;;3.06;65.15;100154.56;5052178;28;20764;-69
2021/05/03 01:02:09;;;;;;;7.75;4.30;;;;;;;3.04;65.43;100156.31;5050806;28;20128;-70
2021/05/03 01:04:34;;;;;;;4.40;3.50;;;;;;;3.06;65.24;100156.31;5071836;28;20404;-71
2021/05/03 01:07:00;;;;;;;5.18;3.78;;;;;;;3.05;65.09;100152.81;5047353;28;20037;-71
2021/05/03 01:09:25;;;;;;;7.10;4.78;;;;;;;2.97;65.10;100147.72;5055509;28;20060;-72
2021/05/03 01:11:50;;;;;;;6.80;4.55;;;;;;;2.94;65.48;100149.50;5039734;28;20037;-70
2021/05/03 01:14:16;;;;;;;10.90;5.68;;;;;;;2.94;65.73;100152.97;5034682;28;20047;-71
2021/05/03 01:16:41;;;;;;;7.32;4.50;;;;;;;2.91;65.63;100153.00;5051010;28;20040;-70
2021/05/03 01:19:07;;;;;;;6.68;4.50;;;;;;;2.89;65.59;100149.56;5051434;28;20041;-71
2021/05/03 01:21:32;;;;;;;9.77;5.35;;;;;;;2.86;65.52;100141.78;5050455;28;20506;-71
2021/05/03 01:23:57;;;;;;;7.50;5.28;;;;;;;2.83;65.94;100146.16;5032280;28;20041;-71
2021/05/03 01:26:23;;;;;;;7.15;4.43;;;;;;;2.82;65.94;100153.13;5015350;28;20144;-69
2021/05/03 01:28:48;;;;;;;6.13;3.97;;;;;;;2.83;66.26;100147.03;5050187;28;20033;-69
2021/05/03 01:31:15;;;;;;;8.00;4.68;;;;;;;2.81;65.95;100148.81;5060662;28;20032;-70
2021/05/03 01:33:41;;;;;;;7.22;4.65;;;;;;;2.79;66.06;100151.41;5069697;28;20060;-70
2021/05/03 01:36:06;;;;;;;7.43;4.68;;;;;;;2.79;66.12;100153.16;5068879;28;20071;-69
2021/05/03 01:38:32;;;;;;;7.32;4.50;;;;;;;2.75;66.41;100151.47;5069684;28;20032;-71
2021/05/03 01:40:57;;;;;;;11.77;5.30;;;;;;;2.69;66.70;100147.19;5069208;28;20462;-70
2021/05/03 01:43:26;;;;;;;10.90;5.78;;;;;;;2.68;66.33;100149.81;5051574;28;20048;-70
2021/05/03 01:45:54;;;;;;;6.75;4.75;;;;;;;2.67;66.53;100145.47;5069225;28;20047;-71
2021/05/03 01:48:22;;;;;;;9.23;5.45;;;;;;;2.63;66.58;100144.66;5069812;28;20040;-71
2021/05/03 01:50:48;;;;;;;15.68;5.95;;;;;;;2.63;66.27;100144.66;5069595;28;20041;-71
2021/05/03 01:53:16;;;;;;;12.02;5.88;;;;;;;2.61;66.59;100146.44;5069592;28;20029;-71
2021/05/03 01:55:43;;;;;;;10.43;5.43;;;;;;;2.62;66.80;100149.88;5069074;28;23767;-70
2021/05/03 01:58:08;;;;;;;9.93;6.90;;;;;;;2.61;66.54;100146.44;5069017;28;20102;-71
2021/05/03 02:00:35;;;;;;;7.57;6.13;;;;;;;2.60;66.60;100143.81;5069347;28;20567;-71
2021/05/03 02:03:02;;;;;;;7.68;5.70;;;;;;;2.56;67.07;100141.28;5069196;28;20040;-70
2021/05/03 02:05:28;;;;;;;8.27;5.57;;;;;;;2.55;67.15;100142.13;5068676;28;20045;-70
2021/05/03 02:08:01;;;;;;;9.85;6.65;;;;;;;2.55;67.31;100138.66;5069763;28;20064;-70
2021/05/03 02:10:28;;;;;;;11.93;5.40;;;;;;;2.55;67.26;100134.31;5070725;28;20436;-71
2021/05/03 02:12:54;;;;;;;15.13;5.72;;;;;;;2.54;67.46;100134.34;5072798;28;20368;-71
2021/05/03 02:15:19;;;;;;;9.00;6.05;;;;;;;2.51;67.84;100126.56;5072551;28;20109;-71
2021/05/03 02:17:45;;;;;;;10.10;7.03;;;;;;;2.50;67.59;100127.44;5076216;28;20028;-71
2021/05/03 02:20:11;;;;;;;8.65;6.85;;;;;;;2.48;68.22;100127.44;5075968;28;20040;-70
2021/05/03 02:22:37;;;;;;;13.27;6.95;;;;;;;2.41;68.46;100127.53;5072130;28;20115;-70
2021/05/03 02:25:03;;;;;;;9.35;7.20;;;;;;;2.36;68.74;100132.78;5058998;28;20445;-71
2021/05/03 02:27:29;;;;;;;8.48;7.07;;;;;;;2.38;68.63;100135.38;5051366;28;20040;-72
2021/05/03 02:29:54;;;;;;;12.48;6.32;;;;;;;2.41;68.55;100138.81;5050714;28;20041;-71
2021/05/03 02:32:19;;;;;;;8.45;7.00;;;;;;;2.44;68.50;100133.59;5050718;28;20443;-70
2021/05/03 02:34:45;;;;;;;15.45;8.20;;;;;;;2.44;68.09;100137.94;5049869;28;20037;-71
2021/05/03 02:37:11;;;;;;;12.65;6.10;;;;;;;2.38;68.45;100133.63;5066855;28;20551;-71
2021/05/03 02:39:36;;;;;;;9.52;5.85;;;;;;;2.42;68.36;100137.09;5094366;28;20055;-71
2021/05/03 02:42:02;;;;;;;10.70;7.30;;;;;;;2.44;68.02;100133.59;5094726;28;20064;-71
2021/05/03 02:44:29;;;;;;;12.02;6.80;;;;;;;2.50;67.84;100137.84;5093220;28;20502;-70
2021/05/03 02:46:54;;;;;;;9.45;7.57;;;;;;;2.53;68.41;100136.06;5094900;28;20047;-71
2021/05/03 02:49:19;;;;;;;11.07;8.35;;;;;;;2.52;67.98;100136.97;5095846;28;20032;-70
2021/05/03 02:51:45;;;;;;;12.75;8.48;;;;;;;2.50;68.21;100137.84;5094052;28;20034;-70
2021/05/03 02:54:10;;;;;;;8.75;7.50;;;;;;;2.48;68.37;100130.06;5092045;28;20036;-70
2021/05/03 02:56:35;;;;;;;12.77;7.45;;;;;;;2.47;68.60;100132.69;5092186;28;20024;-69
2021/05/03 02:59:01;;;;;;;12.45;7.60;;;;;;;2.45;68.04;100131.84;5092205;28;20051;-70
2021/05/03 03:01:26;;;;;;;14.75;7.45;;;;;;;2.42;68.74;100130.13;5092010;28;20476;-71
2021/05/03 03:03:51;;;;;;;9.43;7.07;;;;;;;2.44;68.37;100136.19;5093107;28;20344;-69
2021/05/03 03:06:17;;;;;;;9.68;7.30;;;;;;;2.45;68.28;100129.25;5092068;28;20114;-70
2021/05/03 03:08:42;;;;;;;12.98;6.97;;;;;;;2.41;68.46;100133.59;5092573;28;20044;-71
2021/05/03 03:11:07;;;;;;;11.98;7.78;;;;;;;2.34;69.17;100121.56;5090644;28;20260;-74
2021/05/03 03:13:33;;;;;;;10.18;8.60;;;;;;;2.27;69.15;100123.34;5091993;28;20032;-72
2021/05/03 03:15:58;;;;;;;10.55;8.38;;;;;;;2.25;69.42;100124.25;5091689;28;20044;-71
2021/05/03 03:18:24;;;;;;;9.27;7.07;;;;;;;2.26;69.17;100125.97;5091869;28;20036;-71
2021/05/03 03:20:49;;;;;;;11.10;6.70;;;;;;;2.28;69.00;100124.22;5092482;28;20032;-70
2021/05/03 03:23:15;;;;;;;12.90;7.45;;;;;;;2.25;68.88;100125.09;5091775;28;20414;-71
2021/05/03 03:25:40;;;;;;;10.43;6.65;;;;;;;2.22;69.17;100125.13;5091504;28;20495;-70
2021/05/03 03:28:07;;;;;;;10.52;6.75;;;;;;;2.28;68.76;100129.41;5092134;28;20032;-70
2021/05/03 03:30:33;;;;;;;13.13;7.60;;;;;;;2.29;69.18;100131.13;5091044;28;20111;-70
2021/05/03 03:32:58;;;;;;;13.13;8.25;;;;;;;2.31;69.12;100122.44;5091214;28;20134;-71
2021/05/03 03:35:25;;;;;;;14.45;8.90;;;;;;;2.32;68.70;100121.56;5072965;28;20127;-70
2021/05/03 03:37:52;;;;;;;9.25;7.78;;;;;;;2.31;69.25;100125.06;5091689;28;20039;-70
2021/05/03 03:40:18;;;;;;;14.13;9.20;;;;;;;2.36;68.74;100124.97;5091329;28;20094;-70
2021/05/03 03:42:44;;;;;;;9.32;7.47;;;;;;;2.36;69.05;100119.78;5091560;28;20039;-70
2021/05/03 03:45:10;;;;;;;13.05;7.95;;;;;;;2.31;68.82;100121.56;5091229;28;20048;-69
2021/05/03 03:47:36;;;;;;;15.70;6.88;;;;;;;2.36;69.08;100114.56;5090830;28;20131;-70
2021/05/03 03:50:03;;;;;;;9.10;6.88;;;;;;;2.43;68.69;100113.63;5091122;28;20039;-70
2021/05/03 03:52:28;;;;;;;11.73;7.18;;;;;;;2.51;68.83;100116.16;5091086;28;20036;-70
2021/05/03 03:54:54;;;;;;;13.38;7.75;;;;;;;2.55;68.65;100115.25;5072682;28;20036;-71
2021/05/03 03:57:20;;;;;;;12.43;7.38;;;;;;;2.61;68.39;100111.69;5073317;28;20430;-71
2021/05/03 03:59:48;;;;;;;14.32;7.30;;;;;;;2.64;68.32;100112.53;5089733;28;20032;-70
2021/05/03 04:02:13;;;;;;;14.85;8.05;;;;;;;2.66;68.48;100112.50;5075965;22;20052;-70
2021/05/03 04:04:42;;;;;;;13.13;9.00;;;;;;;2.68;68.16;100105.56;5029148;28;20045;-69
2021/05/03 04:08:01;;;;;;;14.48;8.98;;;;;;;2.72;68.35;100115.06;5029249;28;20037;-68
2021/05/03 04:26:21;;;;;;;10.32;6.80;;;;;;;3.18;66.78;100112.72;5048330;28;20043;-69
2021/05/03 04:28:48;;;;;;;10.05;6.97;;;;;;;3.27;66.47;100116.06;5048553;28;20033;-68
2021/05/03 04:31:13;;;;;;;11.95;6.75;;;;;;;3.36;65.80;100113.34;5047768;28;20086;-70
2021/05/03 04:33:39;;;;;;;10.35;6.65;;;;;;;3.50;65.55;100121.81;5048444;28;20472;-69
2021/05/03 04:36:05;;;;;;;8.23;6.78;;;;;;;3.62;65.39;100120.78;5047615;28;20123;-68
2021/05/03 04:38:30;;;;;;;11.15;7.53;;;;;;;3.73;64.70;100116.25;5048006;28;20043;-68
2021/05/03 04:40:56;;;;;;;6.15;5.25;;;;;;;3.84;64.45;100121.31;5048598;28;20083;-68
2021/05/03 04:43:21;;;;;;;8.23;5.18;;;;;;;3.95;64.48;100124.59;5048421;28;20067;-69
2021/05/03 04:45:47;;;;;;;9.68;5.82;;;;;;;4.06;64.25;100127.00;5047779;28;20131;-69
2021/05/03 04:48:13;;;;;;;8.38;5.95;;;;;;;4.19;63.73;100125.91;5047741;28;20119;-68
2021/05/03 04:50:38;;;;;;;9.85;6.35;;;;;;;4.28;63.12;100127.47;5047989;28;20033;-68
2021/05/03 04:53:04;;;;;;;9.35;6.90;;;;;;;4.36;63.19;100122.16;5049345;28;20047;-67
2021/05/03 04:55:30;;;;;;;7.75;4.97;;;;;;;4.42;62.62;100119.41;5048295;28;20667;-67
2021/05/03 04:57:55;;;;;;;10.13;6.50;;;;;;;4.49;61.98;100115.81;5048120;28;20041;-68
2021/05/03 05:00:21;;;;;;;9.98;6.43;;;;;;;4.60;61.56;100119.03;5048260;28;20036;-71
2021/05/03 05:02:47;;;;;;;11.18;6.75;;;;;;;4.67;61.07;100120.66;5030104;28;20063;-71
2021/05/03 05:05:13;;;;;;;10.52;6.00;;;;;;;4.77;60.54;100125.69;5029513;28;20531;-71
2021/05/03 05:07:39;;;;;;;12.07;6.03;;;;;;;4.84;60.26;100130.75;5047980;28;20036;-68
2021/05/03 05:10:06;;;;;;;14.07;5.68;;;;;;;4.89;59.82;100125.44;5047645;28;20037;-70
2021/05/03 05:12:31;;;;;;;6.85;4.65;;;;;;;4.91;59.74;100119.31;5047589;28;20051;-68
2021/05/03 05:14:57;;;;;;;6.55;4.70;;;;;;;4.92;59.76;100121.03;5047550;28;20037;-70
2021/05/03 05:17:22;;;;;;;10.60;5.85;;;;;;;4.95;59.27;100123.59;5047749;28;20062;-69
2021/05/03 05:19:49;;;;;;;6.95;4.70;;;;;;;5.03;59.31;100120.81;5047312;28;20052;-68
2021/05/03 05:22:14;;;;;;;7.63;4.68;;;;;;;5.11;59.16;100126.72;5047349;28;20032;-69
2021/05/03 05:24:40;;;;;;;12.93;6.22;;;;;;;5.15;58.70;100130.13;5047173;28;20320;-69
2021/05/03 05:27:05;;;;;;;8.48;5.68;;;;;;;5.21;58.47;100130.00;5029400;28;20053;-68
2021/05/03 05:29:32;;;;;;;9.55;4.88;;;;;;;5.27;58.00;100122.03;5047231;28;20028;-69
2021/05/03 05:31:57;;;;;;;9.63;5.97;;;;;;;5.41;57.80;100126.94;5047123;28;20123;-68
2021/05/03 05:34:23;;;;;;;8.38;4.88;;;;;;;5.55;56.85;100126.63;5047623;28;20607;-67
2021/05/03 05:36:48;;;;;;;8.18;4.32;;;;;;;5.71;56.63;100127.13;5046949;28;20175;-70
2021/05/03 05:39:14;;;;;;;6.40;4.38;;;;;;;5.82;56.01;100128.59;5047398;28;20037;-69
2021/05/03 05:41:40;;;;;;;10.65;4.20;;;;;;;5.86;56.19;100124.16;5028967;28;20146;-71
2021/05/03 05:44:08;;;;;;;9.32;4.93;;;;;;;5.88;56.11;100121.47;5047215;28;20036;-69
2021/05/03 05:46:35;;;;;;;10.05;5.15;;;;;;;6.01;55.58;100112.47;5046850;28;20448;-68
2021/05/03 05:49:00;;;;;;;9.13;4.88;;;;;;;6.16;55.07;100113.84;5047600;28;20056;-70
2021/05/03 05:51:26;;;;;;;9.40;5.70;;;;;;;6.33;54.17;100116.03;5047315;28;20112;-70
2021/05/03 05:53:51;;;;;;;9.48;5.72;;;;;;;6.60;53.81;100109.19;5047644;28;20037;-69
2021/05/03 05:56:16;;;;;;;8.30;4.38;;;;;;;6.84;53.27;100115.47;5047096;28;20025;-70
2021/05/03 05:58:42;;;;;;;8.75;5.95;;;;;;;7.01;52.73;100102.72;5047637;28;20112;-68
2021/05/03 06:01:07;;;;;;;9.63;4.68;;;;;;;7.24;51.84;100103.81;5047103;28;20067;-69
2021/05/03 06:03:33;;;;;;;9.88;4.07;;;;;;;7.44;50.84;100111.94;5047386;28;20068;-69
2021/05/03 06:05:58;;;;;;;6.82;4.35;;;;;;;7.52;50.23;100107.28;5046709;28;20068;-69
2021/05/03 06:08:24;;;;;;;6.45;4.25;;;;;;;7.71;49.60;100115.44;5047472;28;20669;-69
2021/05/03 06:10:50;;;;;;;5.95;4.18;;;;;;;7.95;48.75;100108.53;5047443;28;20116;-69
2021/05/03 06:13:15;;;;;;;6.53;4.07;;;;;;;8.17;47.93;100107.78;5048855;28;20353;-70
2021/05/03 06:15:41;;;;;;;7.65;4.00;;;;;;;8.39;47.43;100107.91;5050850;28;20029;-71
2021/05/03 06:18:06;;;;;;;6.43;4.72;;;;;;;8.81;46.37;100116.09;5051180;28;20040;-69
2021/05/03 06:20:34;;;;;;;10.95;4.65;;;;;;;9.29;44.73;100110.81;5051198;28;20029;-69
2021/05/03 06:23:00;;;;;;;5.57;4.38;;;;;;;9.82;43.05;100110.41;5050926;28;20040;-68
2021/05/03 06:25:26;;;;;;;10.00;5.45;;;;;;;10.25;42.14;100109.50;5051864;28;20117;-69
2021/05/03 06:27:51;;;;;;;11.50;4.70;;;;;;;10.48;41.42;100105.91;5051919;28;20040;-69
2021/05/03 06:30:18;;;;;;;5.63;3.35;;;;;;;10.80;41.08;100108.03;5052132;28;20069;-70
2021/05/03 06:32:43;;;;;;;7.40;4.07;;;;;;;11.02;41.32;100111.41;5051975;28;20510;-48
2021/05/03 06:35:08;;;;;;;7.00;4.75;;;;;;;11.11;40.62;100111.00;5046580;28;20037;-49
2021/05/03 06:37:34;;;;;;;6.40;3.92;;;;;;;11.28;39.37;100096.16;5044092;28;20040;-49
2021/05/03 06:39:59;;;;;;;6.35;4.05;;;;;;;11.41;38.85;100107.84;5048420;28;20041;-51
2021/05/03 06:42:24;;;;;;;9.57;4.80;;;;;;;11.31;39.69;100096.84;5031507;28;20528;-46
2021/05/03 06:44:50;;;;;;;9.73;4.18;;;;;;;11.61;38.84;100101.59;5030197;28;20049;-49
2021/05/03 06:47:16;;;;;;;13.65;4.45;;;;;;;11.78;38.42;100098.97;5030585;28;20034;-50
2021/05/03 06:49:41;;;;;;;9.10;4.18;;;;;;;12.10;37.79;100106.28;5030297;28;20140;-50
2021/05/03 06:52:07;;;;;;;7.65;4.60;;;;;;;12.34;36.71;100105.03;5029965;28;20026;-51
2021/05/03 06:54:32;;;;;;;8.52;4.65;;;;;;;12.63;36.13;100100.03;5030270;28;20033;-47
2021/05/03 06:56:57;;;;;;;12.35;5.35;;;;;;;12.60;36.44;100094.88;5029912;28;20423;-51
2021/05/03 06:59:24;;;;;;;9.90;5.95;;;;;;;12.68;36.19;100106.78;5031080;28;20113;-47
2021/05/03 07:01:50;;;;;;;7.97;4.22;;;;;;;12.71;36.44;100102.28;5030294;28;20499;-52
2021/05/03 07:04:15;;;;;;;10.38;5.18;;;;;;;12.94;35.84;100107.16;5030316;28;20037;-49
2021/05/03 07:06:40;;;;;;;12.73;4.70;;;;;;;12.89;36.96;100106.56;5032706;28;20038;-49
2021/05/03 07:09:09;;;;;;;6.18;4.10;;;;;;;12.82;37.47;100106.06;5030104;28;20451;-50
2021/05/03 07:11:34;;;;;;;5.70;3.88;;;;;;;13.02;36.29;100101.47;5031827;28;20103;-50
2021/05/03 07:14:00;;;;;;;8.57;4.80;;;;;;;13.04;35.57;100104.88;5044635;28;20049;-72
2021/05/03 07:16:25;;;;;;;6.90;4.53;;;;;;;13.24;35.16;100101.13;5035727;28;20071;-70
2021/05/03 07:18:51;;;;;;;8.75;4.75;;;;;;;13.18;34.77;100110.28;5037131;28;20505;-69
2021/05/03 07:21:16;;;;;;;11.95;5.85;;;;;;;13.18;35.47;100097.03;5042057;28;20036;-67
2021/05/03 07:23:42;;;;;;;8.65;5.60;;;;;;;13.26;34.69;100093.97;5044917;28;20040;-69
2021/05/03 07:26:09;;;;;;;8.35;5.30;;;;;;;13.47;34.91;100099.91;5045227;28;20423;-68
2021/05/03 07:28:35;;;;;;;9.98;5.30;;;;;;;13.35;34.68;100096.16;5045552;28;20092;-68
2021/05/03 07:31:00;;;;;;;7.53;5.10;;;;;;;13.44;35.28;100108.03;5044296;28;20033;-68
2021/05/03 07:33:26;;;;;;;14.90;5.35;;;;;;;13.43;34.40;100099.22;5046308;28;20029;-68
2021/05/03 07:35:52;;;;;;;9.63;6.15;;;;;;;13.78;34.09;100092.84;5058582;28;20536;-68
2021/05/03 07:38:17;;;;;;;10.85;5.78;;;;;;;13.99;33.47;100088.97;5027313;28;20033;-70
2021/05/03 07:40:43;;;;;;;7.68;5.78;;;;;;;14.18;33.81;100100.19;5027501;28;20033;-68
2021/05/03 07:43:09;;;;;;;8.00;5.90;;;;;;;14.36;32.87;100089.44;5045460;28;20080;-69
2021/05/03 07:45:34;;;;;;;7.88;5.47;;;;;;;14.73;32.73;100096.03;5044998;28;20251;-69
2021/05/03 07:47:59;;;;;;;16.88;5.85;;;;;;;14.96;32.07;100091.97;5044301;28;20037;-68
2021/05/03 07:50:25;;;;;;;14.63;6.43;;;;;;;14.76;32.06;100085.22;5041740;28;20071;-69
2021/05/03 07:52:50;;;;;;;7.53;6.07;;;;;;;14.31;33.04;100087.06;5045600;28;20044;-69
2021/05/03 07:55:16;;;;;;;11.15;6.88;;;;;;;14.36;32.52;100090.28;5045424;28;20092;-69
2021/05/03 07:57:42;;;;;;;17.40;6.68;;;;;;;14.13;33.59;100082.88;5065054;28;20028;-69
2021/05/03 08:00:08;;;;;;;13.38;7.45;;;;;;;14.30;33.27;100081.84;5065333;28;20028;-68
2021/05/03 08:02:34;;;;;;;9.93;5.43;;;;;;;14.38;33.63;100079.59;5064680;28;20458;-69
2021/05/03 08:04:59;;;;;;;14.85;7.15;;;;;;;14.33;33.67;100074.56;5049555;28;20055;-69
2021/05/03 08:07:25;;;;;;;9.35;7.57;;;;;;;14.16;34.65;100074.72;5065166;28;20719;-68
2021/05/03 08:09:50;;;;;;;9.40;6.45;;;;;;;13.85;34.67;100086.25;5052420;28;20037;-69
2021/05/03 08:12:15;;;;;;;10.52;7.20;;;;;;;13.84;34.92;100079.25;5041987;28;20041;-68
2021/05/03 08:14:41;;;;;;;12.23;7.32;;;;;;;13.99;35.46;100075.72;5046085;28;20372;-67
2021/05/03 08:17:10;;;;;;;10.93;7.38;;;;;;;14.10;35.08;100086.56;5044578;28;20454;-68
2021/05/03 08:19:35;;;;;;;13.68;8.13;;;;;;;14.07;35.16;100069.94;5044141;28;20438;-68
2021/05/03 08:22:02;;;;;;;11.95;7.07;;;;;;;14.12;34.92;100076.69;5044789;28;20099;-69
2021/05/03 08:24:28;;;;;;;11.20;6.93;;;;;;;13.95;35.16;100076.81;5045052;28;20043;-68
2021/05/03 08:26:54;;;;;;;7.97;6.25;;;;;;;13.89;34.73;100080.69;5044512;28;20032;-71
2021/05/03 08:29:20;;;;;;;9.48;6.40;;;;;;;14.06;34.42;100076.22;5044044;28;20033;-70
2021/05/03 08:31:46;;;;;;;10.45;6.82;;;;;;;14.25;34.34;100083.91;5044054;28;20553;-68
2021/05/03 08:34:11;;;;;;;20.92;7.70;;;;;;;14.46;33.35;100081.78;5044678;28;20630;-68
2021/05/03 08:36:37;;;;;;;12.98;6.13;;;;;;;14.75;32.06;100078.22;5043457;28;20059;-69
2021/05/03 08:39:05;;;;;;;12.90;7.50;;;;;;;15.13;31.93;100066.16;5024468;28;20132;-69
2021/05/03 08:41:30;;;;;;;14.68;8.70;;;;;;;15.11;32.08;100082.19;5040824;28;20044;-68
2021/05/03 08:43:56;;;;;;;7.78;5.80;;;;;;;15.55;31.01;100066.97;5044963;28;20182;-68
2021/05/03 08:46:28;;;;;;;6.40;5.55;;;;;;;15.71;30.13;100069.53;5043612;28;20048;-69
2021/05/03 08:49:15;;;;;;;8.55;7.25;;;;;;;16.01;29.58;100066.63;5044034;28;20061;-68
2021/05/03 08:52:03;;;;;;;9.80;6.15;;;;;;;15.95;30.28;100069.69;5025605;28;20128;-70
2021/05/03 08:54:38;;;;;;;8.18;6.97;;;;;;;15.99;29.65;100064.06;5043987;28;20160;-68
2021/05/03 08:57:05;;;;;;;9.55;6.53;;;;;;;16.12;29.60;100058.78;5035276;28;20092;-67
2021/05/03 08:59:31;;;;;;;6.82;6.13;;;;;;;16.33;29.65;100048.47;5040601;28;20037;-70
2021/05/03 09:01:57;;;;;;;6.50;5.80;;;;;;;16.24;29.65;100055.28;5044513;28;20696;-68
2021/05/03 09:04:23;;;;;;;9.57;6.15;;;;;;;16.19;29.79;100046.75;5026266;28;20037;-68
2021/05/03 09:07:04;;;;;;;8.98;6.57;;;;;;;16.31;29.57;100047.72;5044030;28;20060;-68
2021/05/03 09:09:34;;;;;;;11.70;8.00;;;;;;;16.35;29.00;100040.41;5043818;28;20037;-70
2021/05/03 09:12:01;;;;;;;8.40;6.63;;;;;;;16.43;28.63;100038.88;5044118;28;20026;-68
2021/05/03 09:14:30;;;;;;;10.57;6.63;;;;;;;16.87;28.16;100037.59;5040639;28;20033;-69
2021/05/03 09:16:55;;;;;;;10.77;7.22;;;;;;;16.78;27.60;100034.72;5043831;28;20123;-71
2021/05/03 09:19:20;;;;;;;10.68;6.55;;;;;;;17.09;27.47;100028.91;5043985;28;20112;-69
2021/05/03 09:21:46;;;;;;;12.75;6.97;;;;;;;17.04;27.75;100027.56;5043817;28;20411;-69
2021/05/03 09:24:16;;;;;;;8.85;6.18;;;;;;;17.36;26.56;100022.53;5044527;28;20488;-68
2021/05/03 09:26:45;;;;;;;10.45;6.82;;;;;;;17.85;26.26;100020.72;5039727;28;20038;-68
2021/05/03 09:29:30;;;;;;;7.75;6.55;;;;;;;18.30;26.17;100015.50;5026867;28;20194;-69
2021/05/03 09:32:01;;;;;;;8.70;7.30;;;;;;;18.36;25.60;100018.53;5045512;28;20036;-71
2021/05/03 09:34:45;;;;;;;9.15;7.32;;;;;;;18.69;25.18;100018.66;5039222;28;20042;-70
2021/05/03 09:37:32;;;;;;;15.57;6.50;;;;;;;18.93;24.99;100011.41;5036578;28;20032;-68
2021/05/03 09:40:00;;;;;;;14.45;6.65;;;;;;;18.85;25.51;100009.34;5037218;28;20139;-68
2021/05/03 09:42:54;;;;;;;8.35;6.57;;;;;;;18.34;26.85;100016.97;5042658;28;20448;-69
2021/05/03 09:45:31;;;;;;;8.80;6.75;;;;;;;18.82;25.82;100014.06;5043544;28;20037;-68
2021/05/03 09:47:59;;;;;;;17.70;7.72;;;;;;;17.91;27.37;99993.56;5046296;28;20041;-68
2021/05/03 09:50:30;;;;;;;12.02;6.75;;;;;;;17.15;28.37;99998.31;5051390;28;20569;-70
2021/05/03 09:53:02;;;;;;;10.52;8.07;;;;;;;16.46;28.95;100005.88;5052804;28;20131;-68
2021/05/03 09:55:54;;;;;;;7.65;6.85;;;;;;;15.85;29.44;100005.63;5054277;28;20040;-67
2021/05/03 09:58:22;;;;;;;16.00;7.22;;;;;;;15.68;29.57;99998.78;5024296;28;20049;-68
2021/05/03 10:00:52;;;;;;;16.70;8.63;;;;;;;16.55;28.03;99983.97;5047212;28;20542;-61
2021/05/03 10:03:47;;;;;;;11.20;6.90;;;;;;;17.32;26.57;99989.91;5031824;28;20045;-63
2021/05/03 10:06:14;;;;;;;14.65;7.63;;;;;;;17.96;25.12;99986.06;5048585;28;20037;-64
2021/05/03 10:08:44;;;;;;;20.63;7.50;;;;;;;18.79;24.57;99979.59;5045448;28;20117;-61
2021/05/03 10:11:15;;;;;;;35.05;9.65;;;;;;;18.97;25.02;99978.09;5030237;28;20033;-62
2021/05/03 10:13:42;;;;;;;43.70;10.82;;;;;;;17.22;27.83;99983.56;5029824;28;20067;-62
2021/05/03 10:16:09;;;;;;;17.98;7.72;;;;;;;16.36;29.16;99984.41;5029087;28;20571;-63
2021/05/03 10:18:40;;;;;;;15.68;8.25;;;;;;;15.51;30.73;99991.09;5030097;28;20056;-68
2021/05/03 10:21:10;;;;;;;11.38;7.10;;;;;;;15.03;31.66;99975.59;5041323;28;20508;-68
2021/05/03 10:23:40;;;;;;;17.00;8.57;;;;;;;15.28;30.74;99974.00;5049963;28;20621;-68
2021/05/03 10:26:06;;;;;;;13.00;9.05;;;;;;;16.75;29.43;99958.56;5046347;28;20672;-68
2021/05/03 10:28:52;;;;;;;9.02;6.80;;;;;;;18.18;26.86;99947.91;5041031;28;20044;-68
2021/05/03 10:31:18;;;;;;;;;;;;;;;18.81;26.10;99943.78;5043015;28;20110;-72
2021/05/03 10:33:43;;;;;;;9.75;7.65;;;;;;;19.22;25.52;99946.69;5048583;28;20380;-67
2021/05/03 10:36:09;;;;;;;8.52;6.50;;;;;;;19.16;24.66;99941.88;5041125;28;20492;-70
2021/05/03 10:38:39;;;;;;;9.98;6.55;;;;;;;19.57;24.56;99949.13;5034674;28;20053;-68
2021/05/03 10:41:25;;;;;;;7.55;6.57;;;;;;;20.00;23.99;99950.00;5030283;28;20037;-70
2021/05/03 10:44:08;;;;;;;8.80;7.60;;;;;;;20.40;23.54;99941.16;5029207;28;20127;-68
2021/05/03 10:49:20;;;;;;;21.08;7.78;;;;;;;19.86;23.82;99925.28;5048615;28;20105;-70
2021/05/03 10:52:08;;;;;;;6.75;6.07;;;;;;;19.28;24.57;99924.81;5044993;28;20152;-68
2021/05/03 10:54:49;;;;;;;6.65;6.05;;;;;;;18.92;25.43;99918.00;5047128;28;20037;-69
2021/05/03 10:57:14;;;;;;;8.05;6.35;;;;;;;18.33;26.05;99909.31;5045390;28;20046;-68
2021/05/03 10:59:52;;;;;;;9.00;6.05;;;;;;;18.01;26.08;99914.53;5040723;28;20041;-69
2021/05/03 11:02:20;;;;;;;6.50;5.68;;;;;;;17.81;26.67;99914.25;5043299;28;20044;-68
2021/05/03 11:05:10;;;;;;;5.97;5.38;;;;;;;17.51;26.89;99905.94;5034979;28;20400;-70
2021/05/03 11:07:56;;;;;;;14.00;6.30;;;;;;;16.57;28.63;99912.00;5014743;28;20180;-69
2021/05/03 11:11:02;;;;;;;8.63;5.82;;;;;;;16.11;28.88;99910.78;5013591;28;20033;-68
2021/05/03 11:13:36;;;;;;;11.68;5.32;;;;;;;15.52;29.53;99908.59;5046536;28;20044;-68
2021/05/03 11:16:24;;;;;;;9.10;5.53;;;;;;;15.43;29.30;99898.59;5046085;28;20033;-70
2021/05/03 11:18:50;;;;;;;8.85;5.68;;;;;;;15.74;28.80;99908.03;5045033;28;20099;-68
2021/05/03 11:21:16;;;;;;;12.70;5.10;;;;;;;15.79;28.89;99899.72;5046145;28;20371;-68
2021/05/03 11:23:42;;;;;;;8.43;5.25;;;;;;;15.51;29.35;99898.09;5045751;28;20041;-69
2021/05/03 11:26:34;;;;;;;13.02;5.47;;;;;;;15.22;29.52;99900.91;5036981;28;20048;-70
2021/05/03 11:29:12;;;;;;;9.20;5.22;;;;;;;14.92;30.17;99887.84;5036324;28;20042;-70
2021/05/03 11:31:38;;;;;;;7.25;4.90;;;;;;;14.87;30.63;99890.81;5025937;28;20033;-68
2021/05/03 11:34:09;;;;;;;10.25;5.22;;;;;;;15.03;29.98;99885.31;5026637;28;20715;-69
2021/05/03 11:36:40;;;;;;;10.40;5.65;;;;;;;15.56;29.70;99888.00;5025866;28;20096;-70
2021/05/03 11:39:20;;;;;;;11.45;4.95;;;;;;;15.85;29.16;99878.03;5025748;28;20037;-70
2021/05/03 11:42:00;;;;;;;6.70;5.50;;;;;;;16.15;28.76;99867.06;5028881;28;20196;-71
2021/05/03 11:44:52;;;;;;;18.35;6.15;;;;;;;15.77;29.63;99859.97;5038284;28;20072;-68
2021/05/03 11:47:27;;;;;;;5.85;5.22;;;;;;;15.70;29.47;99860.50;5045151;28;20045;-70
2021/05/03 11:49:53;;;;;;;6.28;4.43;;;;;;;15.74;29.40;99856.66;5027606;28;20064;-69